Time;durP1;ratioP1;P1;durP2;ratioP2;P2;SDS_P1;SDS_P2;PMS_P1;PMS_P2;Temp;Humidity;BMP_temperature;BMP_pressure;BME280_temperature;BME280_humidity;BME280_pressure;Samples;Min_cycle;Max_cycle;Signal;HPM_P1;HPM_P2
2022/12/14 00:01:23;;;;;;;;;;;;;;;1.74;52.06;98803.09;4513513;31;33339;-83
2022/12/14 00:03:51;;;;;;;;;;;;;;;1.54;52.64;98809.94;4502674;31;34559;-82
2022/12/14 00:06:22;;;;;;;;;;;;;;;1.37;53.14;98806.69;4515662;31;33806;-82
2022/12/14 00:08:50;;;;;;;;;;;;;;;1.21;54.04;98799.16;4510889;31;33316;-82
2022/12/14 00:11:21;;;;;;;;;;;;;;;1.52;53.23;98797.94;4516027;31;34008;-83
2022/12/14 00:13:54;;;;;;;;;;;;;;;1.60;53.03;98801.69;4513731;31;34422;-82
2022/12/14 00:16:22;;;;;;;;;;;;;;;1.75;52.54;98784.44;4515797;31;34906;-83
2022/12/14 00:18:50;;;;;;;;;;;;;;;1.22;54.17;98795.81;4515952;31;33323;-83
2022/12/14 00:21:18;;;;;;;;;;;;;;;1.37;53.21;98796.47;4515895;31;33870;-82
2022/12/14 00:23:46;;;;;;;;;;;;;;;0.88;54.72;98796.87;4514659;31;35221;-83
2022/12/14 00:26:23;;;;;;;;;;;;;;;0.95;54.84;98798.03;4499549;31;34912;-82
2022/12/14 00:28:51;;;;;;;;;;;;;;;1.25;54.44;98800.16;4499753;31;33301;-82
2022/12/14 00:31:19;;;;;;;;;;;;;;;1.64;53.39;98795.88;4499992;31;34210;-82
2022/12/14 00:33:47;;;;;;;;;;;;;;;1.33;53.27;98798.84;4509067;31;34421;-83
2022/12/14 00:36:14;;;;;;;;;;;;;;;1.64;52.94;98798.44;4516894;31;34005;-83
2022/12/14 00:38:41;;;;;;;;;;;;;;;1.63;53.23;98801.78;4531653;31;33367;-82
2022/12/14 00:41:09;;;;;;;;;;;;;;;1.76;53.06;98792.97;4531558;31;34210;-83
2022/12/14 00:43:36;;;;;;;;;;;;;;;2.31;51.47;98788.41;4521922;31;34901;-81
2022/12/14 00:46:03;;;;;;;;;;;;;;;2.82;50.09;98793.75;4499711;31;35463;-82
2022/12/14 00:48:31;;;;;;;;;;;;;;;2.53;50.09;98795.19;4501203;31;32981;-82
2022/12/14 00:50:59;;;;;;;;;;;;;;;3.03;49.16;98797.91;4515461;31;34323;-82
2022/12/14 00:53:27;;;;;;;;;;;;;;;2.18;51.32;98807.47;4503956;31;34306;-82
2022/12/14 00:55:55;;;;;;;;;;;;;;;1.66;52.64;98818.13;4504466;31;34736;-83
2022/12/14 00:58:23;;;;;;;;;;;;;;;1.59;53.02;98817.78;4500264;31;34684;-82
2022/12/14 01:00:58;;;;;;;;;;;;;;;1.74;52.96;98809.91;4515401;31;34806;-81
2022/12/14 01:03:25;;;;;;;;;;;;;;;1.24;53.74;98818.84;4506600;31;34380;-83
2022/12/14 01:05:53;;;;;;;;;;;;;;;1.52;53.25;98809.03;4499913;31;34143;-82
2022/12/14 01:08:21;;;;;;;;;;;;;;;1.21;53.75;98809.34;4499570;31;33466;-83
2022/12/14 01:10:49;;;;;;;;;;;;;;;0.52;55.93;98815.59;4501565;31;34269;-83
2022/12/14 01:13:16;;;;;;;;;;;;;;;1.31;54.32;98811.50;4514226;31;32927;-83
2022/12/14 01:15:43;;;;;;;;;;;;;;;1.71;53.04;98815.78;4499686;31;34174;-82
2022/12/14 01:18:11;;;;;;;;;;;;;;;1.43;53.72;98817.16;4506410;31;33160;-82
2022/12/14 01:20:38;;;;;;;;;;;;;;;1.43;53.88;98816.28;4510700;31;35003;-81
2022/12/14 01:23:06;;;;;;;;;;;;;;;0.95;54.81;98815.88;4509748;31;35018;-82
2022/12/14 01:25:33;;;;;;;;;;;;;;;0.90;55.13;98818.22;4500297;31;33886;-81
2022/12/14 01:28:01;;;;;;;;;;;;;;;0.79;55.51;98821.94;4499566;31;33244;-82
2022/12/14 01:30:28;;;;;;;;;;;;;;;1.11;54.77;98812.34;4504824;31;33654;-82
2022/12/14 01:32:55;;;;;;;;;;;;;;;1.67;52.74;98816.47;4505408;31;34740;-82
2022/12/14 01:35:22;;;;;;;;;;;;;;;1.28;54.09;98819.03;4501785;31;34012;-82
2022/12/14 01:37:50;;;;;;;;;;;;;;;2.14;51.94;98809.88;4512462;31;33374;-82
2022/12/14 01:40:17;;;;;;;;;;;;;;;1.06;54.71;98806.13;4507132;31;34146;-83
2022/12/14 01:42:44;;;;;;;;;;;;;;;0.92;55.61;98808.09;4510160;31;34478;-82
2022/12/14 01:45:20;;;;;;;;;;;;;;;1.85;52.63;98801.00;4502809;31;33779;-81
2022/12/14 01:47:54;;;;;;;;;;;;;;;1.26;54.10;98795.13;4512830;31;34139;-82
2022/12/14 01:50:29;;;;;;;;;;;;;;;1.42;53.79;98796.66;4505802;31;34005;-81
2022/12/14 01:52:57;;;;;;;;;;;;;;;-0.02;56.74;98803.72;4508570;31;33855;-82
2022/12/14 01:55:32;;;;;;;;;;;;;;;0.61;55.74;98793.06;4513342;31;34416;-82
2022/12/14 01:58:07;;;;;;;;;;;;;;;-0.15;58.15;98791.22;4497934;31;34523;-81
2022/12/14 02:00:34;;;;;;;;;;;;;;;1.19;54.84;98793.12;4505576;31;33583;-82
2022/12/14 02:03:05;;;;;;;;;;;;;;;0.27;56.48;98786.41;4510899;31;34397;-82
2022/12/14 02:05:33;;;;;;;;;;;;;;;0.99;54.90;98774.37;4506568;31;34172;-82
2022/12/14 02:08:00;;;;;;;;;;;;;;;0.69;55.40;98779.00;4497910;31;33093;-81
2022/12/14 02:10:27;;;;;;;;;;;;;;;0.33;56.55;98784.13;4499499;31;33968;-82
2022/12/14 02:12:58;;;;;;;;;;;;;;;0.18;56.96;98785.97;4513546;31;33796;-83
2022/12/14 02:15:25;;;;;;;;;;;;;;;0.44;56.75;98782.94;4507325;31;33820;-82
2022/12/14 02:17:52;;;;;;;;;;;;;;;0.04;58.14;98779.31;4514657;31;33873;-82
2022/12/14 02:20:20;;;;;;;;;;;;;;;0.68;56.16;98780.66;4499922;31;34518;-82
2022/12/14 02:22:53;;;;;;;;;;;;;;;0.90;55.64;98777.38;4514313;31;34357;-82
2022/12/14 02:25:26;;;;;;;;;;;;;;;0.83;55.59;98777.03;4514450;31;34186;-82
2022/12/14 02:28:03;;;;;;;;;;;;;;;0.81;55.46;98774.44;4514581;31;34125;-83
2022/12/14 02:30:33;;;;;;;;;;;;;;;0.83;55.47;98777.03;4512243;31;33914;-81
2022/12/14 02:33:21;;;;;;;;;;;;;;;1.44;53.44;98772.94;4510673;31;34185;-82
2022/12/14 02:35:51;;;;;;;;;;;;;;;1.11;54.16;98771.50;4514463;31;34253;-82
2022/12/14 02:38:34;;;;;;;;;;;;;;;0.81;55.83;98771.88;4514346;31;33566;-82
2022/12/14 02:41:04;;;;;;;;;;;;;;;0.52;56.08;98767.13;4509140;31;34623;-82
2022/12/14 02:43:40;;;;;;;;;;;;;;;0.84;55.63;98756.72;4513395;31;35096;-82
2022/12/14 02:46:11;;;;;;;;;;;;;;;0.86;55.27;98754.22;4514213;31;34801;-82
2022/12/14 02:48:40;;;;;;;;;;;;;;;1.14;54.23;98746.09;4513875;31;33923;-82
2022/12/14 02:51:14;;;;;;;;;;;;;;;0.75;55.35;98752.84;4514368;31;33794;-82
2022/12/14 02:53:43;;;;;;;;;;;;;;;1.28;54.20;98754.31;4507941;31;34381;-81
2022/12/14 02:56:12;;;;;;;;;;;;;;;1.34;53.92;98745.25;4504894;31;34842;-82
2022/12/14 02:58:45;;;;;;;;;;;;;;;0.85;55.25;98748.25;4517812;31;33383;-82
2022/12/14 03:01:19;;;;;;;;;;;;;;;0.10;57.64;98742.25;4514507;31;33891;-80
2022/12/14 03:03:46;;;;;;;;;;;;;;;-0.71;59.75;98748.53;4500447;31;34273;-82
2022/12/14 03:06:24;;;;;;;;;;;;;;;-0.32;59.83;98751.28;4500621;31;34194;-82
2022/12/14 03:08:53;;;;;;;;;;;;;;;-0.89;61.19;98753.56;4500388;31;33170;-81
2022/12/14 03:11:21;;;;;;;;;;;;;;;-0.40;59.90;98744.94;4505822;31;33703;-81
2022/12/14 03:13:56;;;;;;;;;;;;;;;-0.27;59.62;98740.50;4514973;31;33975;-82
2022/12/14 03:16:26;;;;;;;;;;;;;;;-0.81;61.52;98738.66;4516610;31;34466;-80
2022/12/14 03:19:00;;;;;;;;;;;;;;;-0.42;60.56;98733.81;4515013;31;33704;-82
2022/12/14 03:21:30;;;;;;;;;;;;;;;-0.70;61.24;98744.31;4500815;31;33870;-81
2022/12/14 03:23:58;;;;;;;;;;;;;;;0.01;59.81;98748.63;4502123;31;33906;-80
2022/12/14 03:26:26;;;;;;;;;;;;;;;-0.36;60.67;98755.34;4507218;31;33778;-81
2022/12/14 03:29:01;;;;;;;;;;;;;;;-0.67;61.44;98750.44;4514401;31;33657;-81
2022/12/14 03:31:39;;;;;;;;;;;;;;;-0.71;61.86;98751.06;4500704;31;33961;-82
2022/12/14 03:34:07;;;;;;;;;;;;;;;0.01;60.15;98738.44;4510419;31;34882;-82
2022/12/14 03:36:41;;;;;;;;;;;;;;;0.38;58.62;98739.34;4514425;31;34004;-83
2022/12/14 03:39:09;;;;;;;;;;;;;;;0.45;58.96;98740.47;4514699;31;33203;-81
2022/12/14 03:41:37;;;;;;;;;;;;;;;-0.37;61.45;98735.78;4503741;31;33659;-82
2022/12/14 03:44:07;;;;;;;;;;;;;;;0.04;60.42;98730.91;4516409;31;35132;-82
2022/12/14 03:46:52;;;;;;;;;;;;;;;0.07;60.67;98725.94;4502989;31;34093;-81
2022/12/14 03:49:27;;;;;;;;;;;;;;;-0.26;61.45;98726.13;4501743;31;32724;-81
2022/12/14 03:52:16;;;;;;;;;;;;;;;-0.45;62.42;98728.59;4508873;31;35300;-80
2022/12/14 03:55:02;;;;;;;;;;;;;;;-0.61;63.34;98735.44;4498608;31;34801;-82
2022/12/14 03:57:44;;;;;;;;;;;;;;;-0.56;62.76;98725.50;4507452;31;34896;-81
2022/12/14 04:00:13;;;;;;;;;;;;;;;-0.62;63.42;98715.88;4515660;31;33359;-82
2022/12/14 04:02:52;;;;;;;;;;;;;;;-0.09;62.30;98709.94;4507714;31;34766;-82
2022/12/14 04:05:23;;;;;;;;;;;;;;;0.42;60.41;98709.75;4515920;31;35345;-81
2022/12/14 04:07:56;;;;;;;;;;;;;;;0.20;61.04;98707.91;4515817;31;34869;-82
2022/12/14 04:18:58;;;;;;;;;;;;;;;-0.39;62.40;98704.25;4514675;31;34210;-82
2022/12/14 04:21:41;;;;;;;;;;;;;;;-0.33;63.05;98698.59;4515013;31;33424;-81
2022/12/14 04:27:00;;;;;;;;;;;;;;;-0.06;62.02;98686.28;4498765;31;34418;-82
2022/12/14 04:32:26;;;;;;;;;;;;;;;-0.64;64.31;98680.97;4503204;31;33103;-81
2022/12/14 04:34:59;;;;;;;;;;;;;;;-0.81;64.59;98678.47;4515774;31;34116;-81
2022/12/14 04:37:26;;;;;;;;;;;;;;;-0.39;63.54;98665.19;4515794;31;34106;-81
2022/12/14 04:39:55;;;;;;;;;;;;;;;-0.64;64.16;98664.03;4514966;31;34822;-82
2022/12/14 04:42:23;;;;;;;;;;;;;;;-0.18;63.07;98663.66;4515324;31;33358;-82
2022/12/14 04:44:55;;;;;;;;;;;;;;;-0.72;65.41;98662.75;4514918;31;33984;-82
2022/12/14 04:47:25;;;;;;;;;;;;;;;0.26;61.97;98649.53;4515729;31;34204;-81
2022/12/14 04:49:54;;;;;;;;;;;;;;;-0.03;63.15;98658.41;4516148;31;34650;-82
2022/12/14 04:52:54;;;;;;;;;;;;;;;0.02;62.12;98661.16;4512121;31;33222;-81
2022/12/14 04:55:30;;;;;;;;;;;;;;;-0.06;62.67;98653.16;4480420;31;34665;-80
2022/12/14 04:57:59;;;;;;;;;;;;;;;-0.06;62.56;98658.25;4499253;31;34097;-81
2022/12/14 05:00:28;;;;;;;;;;;;;;;-0.64;65.04;98656.41;4502984;31;33565;-82
2022/12/14 05:03:08;;;;;;;;;;;;;;;-0.20;63.79;98652.53;4501528;31;33169;-80
2022/12/14 05:05:38;;;;;;;;;;;;;;;-0.25;63.52;98652.31;4500014;31;33911;-81
2022/12/14 05:08:21;;;;;;;;;;;;;;;-0.02;62.98;98661.03;4498331;31;35265;-83
2022/12/14 05:10:55;;;;;;;;;;;;;;;-0.13;62.37;98667.28;4501153;31;34408;-81
2022/12/14 05:13:44;;;;;;;;;;;;;;;-0.03;62.67;98669.47;4514302;31;34072;-82
2022/12/14 05:16:16;;;;;;;;;;;;;;;0.36;61.46;98672.09;4510076;31;34079;-80
2022/12/14 05:18:43;;;;;;;;;;;;;;;0.23;61.99;98680.88;4513266;31;35279;-82
2022/12/14 05:21:45;;;;;;;;;;;;;;;-0.40;63.46;98676.19;4512534;31;34011;-82
2022/12/14 05:24:02;;;;;;;;;;;;;;;-0.20;62.70;98678.00;4508870;31;33474;-81
2022/12/14 05:26:29;;;;;;;;;;;;;;;-0.16;62.80;98664.59;4510849;31;33638;-80
2022/12/14 05:28:56;;;;;;;;;;;;;;;0.15;62.44;98668.56;4508019;31;33980;-80
2022/12/14 05:31:24;;;;;;;;;;;;;;;-0.20;62.42;98665.25;4514553;31;33039;-82
2022/12/14 05:33:51;;;;;;;;;;;;;;;-0.34;63.06;98661.19;4511126;31;33269;-82
2022/12/14 05:36:18;;;;;;;;;;;;;;;0.33;60.96;98656.62;4505603;31;34349;-80
2022/12/14 05:38:46;;;;;;;;;;;;;;;0.78;59.93;98644.16;4511311;31;34124;-81
2022/12/14 05:41:13;;;;;;;;;;;;;;;0.31;60.92;98649.75;4514664;31;34049;-82
2022/12/14 05:43:40;;;;;;;;;;;;;;;0.62;59.96;98645.19;4515039;31;33622;-82
2022/12/14 05:46:08;;;;;;;;;;;;;;;0.27;60.56;98643.63;4513302;31;34541;-82
2022/12/14 05:48:36;;;;;;;;;;;;;;;-0.09;60.98;98653.88;4514759;31;34159;-82
2022/12/14 05:51:12;;;;;;;;;;;;;;;0.51;60.14;98648.06;4513624;31;33793;-82
2022/12/14 05:53:39;;;;;;;;;;;;;;;0.23;61.08;98651.97;4513167;31;32987;-82
2022/12/14 05:56:07;;;;;;;;;;;;;;;-0.39;62.79;98647.38;4512198;31;34589;-82
2022/12/14 05:58:35;;;;;;;;;;;;;;;-0.15;62.47;98643.44;4509274;31;35218;-81
2022/12/14 06:01:03;;;;;;;;;;;;;;;-0.69;63.57;98621.31;4511650;31;33980;-82
2022/12/14 06:03:31;;;;;;;;;;;;;;;-0.48;63.50;98617.25;4513332;31;33125;-82
2022/12/14 06:06:05;;;;;;;;;;;;;;;0.48;59.57;98616.50;4513338;31;34380;-82
2022/12/14 06:08:34;;;;;;;;;;;;;;;-0.30;62.57;98614.72;4514826;31;33834;-83
2022/12/14 06:11:02;;;;;;;;;;;;;;;-0.18;62.66;98599.97;4514250;31;34036;-82
2022/12/14 06:13:30;;;;;;;;;;;;;;;-0.57;63.75;98602.44;4513547;31;34756;-82
2022/12/14 06:16:07;;;;;;;;;;;;;;;-0.51;63.68;98596.75;4514772;31;34687;-82
2022/12/14 06:18:34;;;;;;;;;;;;;;;-0.25;62.92;98609.00;4513179;31;34297;-81
2022/12/14 06:21:02;;;;;;;;;;;;;;;-0.38;62.29;98610.91;4514533;31;34053;-82
2022/12/14 06:23:29;;;;;;;;;;;;;;;-0.67;63.36;98625.69;4504154;31;33297;-82
2022/12/14 06:25:56;;;;;;;;;;;;;;;-0.46;62.54;98609.69;4527286;31;33791;-82
2022/12/14 06:28:24;;;;;;;;;;;;;;;0.20;61.08;98614.44;4502088;31;35443;-82
2022/12/14 06:30:51;;;;;;;;;;;;;;;-0.53;63.04;98624.69;4500468;31;34091;-83
2022/12/14 06:33:18;;;;;;;;;;;;;;;-0.20;62.39;98637.22;4514818;31;33417;-83
2022/12/14 06:35:46;;;;;;;;;;;;;;;0.23;61.15;98626.47;4516415;31;34333;-83
2022/12/14 06:38:13;;;;;;;;;;;;;;;0.66;59.89;98602.81;4516402;31;33848;-83
2022/12/14 06:40:40;;;;;;;;;;;;;;;0.19;60.94;98607.59;4515695;31;33842;-82
2022/12/14 06:43:08;;;;;;;;;;;;;;;-0.30;61.77;98622.34;4515332;31;33746;-83
2022/12/14 06:45:35;;;;;;;;;;;;;;;-0.21;62.15;98630.41;4516544;31;33875;-83
2022/12/14 06:48:02;;;;;;;;;;;;;;;-0.45;62.47;98631.81;4516435;31;34005;-83
2022/12/14 06:50:30;;;;;;;;;;;;;;;-0.59;62.71;98628.59;4503375;31;33994;-84
2022/12/14 06:52:57;;;;;;;;;;;;;;;-0.40;62.37;98615.94;4500357;31;33329;-84
2022/12/14 06:55:24;;;;;;;;;;;;;;;0.12;60.92;98617.47;4519387;31;34462;-84
2022/12/14 06:57:52;;;;;;;;;;;;;;;-0.40;62.66;98612.53;4523743;31;35177;-83
2022/12/14 07:00:20;;;;;;;;;;;;;;;-0.04;61.25;98611.69;4515854;31;33924;-84
2022/12/14 07:02:47;;;;;;;;;;;;;;;-0.37;62.02;98612.69;4516342;31;34477;-84
2022/12/14 07:05:15;;;;;;;;;;;;;;;-0.09;61.80;98607.16;4516246;31;33961;-84
2022/12/14 07:07:43;;;;;;;;;;;;;;;-0.71;63.26;98598.34;4516002;31;34269;-84
2022/12/14 07:10:10;;;;;;;;;;;;;;;-0.74;63.33;98593.09;4516137;31;34130;-84
2022/12/14 07:12:37;;;;;;;;;;;;;;;-0.30;62.36;98592.66;4502042;31;31501;-84
2022/12/14 07:15:06;;;;;;;;;;;;;;;-0.14;61.78;98601.00;4516177;31;33991;-83
2022/12/14 07:17:34;;;;;;;;;;;;;;;-0.16;61.50;98606.00;4516259;31;33499;-84
2022/12/14 07:20:02;;;;;;;;;;;;;;;0.03;61.28;98602.59;4516314;31;35142;-83
2022/12/14 07:22:29;;;;;;;;;;;;;;;-0.63;62.77;98591.06;4516164;31;33072;-83
2022/12/14 07:24:57;;;;;;;;;;;;;;;-0.26;62.27;98586.03;4516496;31;34010;-85
2022/12/14 07:27:25;;;;;;;;;;;;;;;-0.61;63.43;98582.69;4513755;31;34494;-86
2022/12/14 07:29:59;;;;;;;;;;;;;;;-0.37;62.28;98574.47;4501667;31;34473;-86
2022/12/14 07:32:26;;;;;;;;;;;;;;;-0.53;63.25;98581.41;4512318;31;34163;-88
2022/12/14 07:34:54;;;;;;;;;;;;;;;-0.45;62.62;98571.56;4515217;31;35096;-85
2022/12/14 07:37:21;;;;;;;;;;;;;;;-0.62;63.15;98580.94;4515073;31;33403;-88
2022/12/14 07:39:48;;;;;;;;;;;;;;;-0.25;62.66;98586.09;4516091;31;34306;-81
2022/12/14 07:42:15;;;;;;;;;;;;;;;-0.15;61.30;98597.56;4503536;31;33307;-85
2022/12/14 07:44:45;;;;;;;;;;;;;;;-0.31;62.38;98605.28;4500091;31;34927;-83
2022/12/14 07:47:13;;;;;;;;;;;;;;;0.60;59.96;98605.09;4500155;31;33782;-86
2022/12/14 07:49:43;;;;;;;;;;;;;;;0.70;59.30;98597.03;4499898;31;34292;-85
2022/12/14 07:52:10;;;;;;;;;;;;;;;0.39;60.21;98600.81;4500234;31;33649;-86
2022/12/14 07:54:37;;;;;;;;;;;;;;;0.11;61.04;98615.69;4500205;31;33830;-85
2022/12/14 07:57:04;;;;;;;;;;;;;;;-0.71;63.25;98607.66;4498715;31;34148;-83
2022/12/14 07:59:31;;;;;;;;;;;;;;;-0.15;61.78;98610.31;4499877;31;33956;-86
2022/12/14 08:01:59;;;;;;;;;;;;;;;-0.16;61.50;98621.28;4500301;31;34074;-85
2022/12/14 08:04:27;;;;;;;;;;;;;;;0.28;60.65;98616.47;4500408;31;34210;-84
2022/12/14 08:06:54;;;;;;;;;;;;;;;0.59;59.98;98618.66;4499988;31;34821;-86
2022/12/14 08:09:26;;;;;;;;;;;;;;;0.45;59.43;98616.38;4500150;31;34250;-86
2022/12/14 08:11:53;;;;;;;;;;;;;;;-0.02;61.06;98604.97;4499949;31;33371;-85
2022/12/14 08:14:21;;;;;;;;;;;;;;;0.55;60.25;98614.25;4500064;31;34092;-86
2022/12/14 08:16:49;;;;;;;;;;;;;;;0.62;59.35;98600.94;4500160;31;34102;-86
2022/12/14 08:19:16;;;;;;;;;;;;;;;0.20;60.65;98591.50;4498727;31;34001;-86
2022/12/14 08:21:47;;;;;;;;;;;;;;;0.71;59.05;98580.91;4498421;31;34204;-84
2022/12/14 08:24:15;;;;;;;;;;;;;;;0.21;60.33;98592.38;4499962;31;34009;-85
2022/12/14 08:26:43;;;;;;;;;;;;;;;0.46;59.50;98600.28;4499852;31;35236;-86
2022/12/14 08:29:16;;;;;;;;;;;;;;;-0.04;60.67;98611.69;4500261;31;34280;-85
2022/12/14 08:31:43;;;;;;;;;;;;;;;0.30;60.27;98605.50;4499930;31;34059;-86
2022/12/14 08:34:10;;;;;;;;;;;;;;;0.30;60.18;98604.63;4499639;31;34276;-86
2022/12/14 08:36:38;;;;;;;;;;;;;;;0.77;58.79;98590.53;4499898;31;33950;-84
2022/12/14 08:39:06;;;;;;;;;;;;;;;0.25;60.23;98596.78;4499863;31;34694;-86
2022/12/14 08:41:33;;;;;;;;;;;;;;;0.32;59.92;98580.97;4500089;31;33175;-85
2022/12/14 08:44:01;;;;;;;;;;;;;;;0.40;59.96;98569.41;4472188;31;875028;-86
2022/12/14 08:46:30;;;;;;;;;;;;;;;-0.21;61.46;98569.25;4499989;31;34800;-84
2022/12/14 08:48:57;;;;;;;;;;;;;;;-0.12;61.29;98576.44;4499544;31;34353;-86
2022/12/14 08:51:25;;;;;;;;;;;;;;;-0.31;62.00;98574.72;4499758;31;32566;-85
2022/12/14 08:53:53;;;;;;;;;;;;;;;0.27;60.69;98571.38;4498386;31;34671;-83
2022/12/14 08:56:21;;;;;;;;;;;;;;;0.25;60.35;98563.66;4498751;31;34553;-86
2022/12/14 08:58:49;;;;;;;;;;;;;;;0.46;59.86;98551.84;4498545;31;33951;-86
2022/12/14 09:01:18;;;;;;;;;;;;;;;0.69;59.62;98555.34;4499405;31;33132;-83
2022/12/14 09:03:46;;;;;;;;;;;;;;;0.67;59.11;98551.84;4499660;31;34100;-84
2022/12/14 09:06:14;;;;;;;;;;;;;;;0.22;59.79;98544.00;4497965;31;34395;-84
2022/12/14 09:08:41;;;;;;;;;;;;;;;-0.22;61.16;98570.06;4499360;31;34873;-85
2022/12/14 09:11:12;;;;;;;;;;;;;;;0.33;60.09;98551.25;4499881;31;33399;-84
2022/12/14 09:13:40;;;;;;;;;;;;;;;0.08;60.35;98567.16;4499547;31;34313;-86
2022/12/14 09:16:09;;;;;;;;;;;;;;;0.06;59.83;98561.97;4499527;31;34360;-86
2022/12/14 09:18:37;;;;;;;;;;;;;;;0.23;59.92;98563.59;4499626;31;34138;-85
2022/12/14 09:21:05;;;;;;;;;;;;;;;0.10;60.37;98563.00;4498245;31;33548;-85
2022/12/14 09:23:32;;;;;;;;;;;;;;;0.01;60.36;98554.94;4499585;31;33658;-86
2022/12/14 09:26:00;;;;;;;;;;;;;;;0.15;60.99;98558.94;4498462;31;33840;-86
2022/12/14 09:28:28;;;;;;;;;;;;;;;0.85;58.49;98545.78;4499567;31;35011;-85
2022/12/14 09:30:56;;;;;;;;;;;;;;;0.65;58.37;98550.06;4499392;31;34267;-85
2022/12/14 09:33:24;;;;;;;;;;;;;;;0.65;58.92;98534.75;4485208;31;34775;-85
2022/12/14 09:35:51;;;;;;;;;;;;;;;0.79;58.80;98533.62;4497955;31;34503;-86
2022/12/14 09:38:19;;;;;;;;;;;;;;;0.43;59.38;98546.59;4499116;31;34032;-84
2022/12/14 09:40:52;;;;;;;;;;;;;;;0.63;58.75;98542.34;4499028;31;33675;-85
2022/12/14 09:43:26;;;;;;;;;;;;;;;0.78;59.12;98528.47;4498282;31;33614;-85
2022/12/14 09:45:53;;;;;;;;;;;;;;;0.66;59.03;98527.16;4497974;31;34367;-86
2022/12/14 09:48:22;;;;;;;;;;;;;;;1.02;58.09;98515.81;4497882;31;34852;-86
2022/12/14 09:50:49;;;;;;;;;;;;;;;1.35;57.14;98504.38;4498841;31;33722;-86
2022/12/14 09:53:17;;;;;;;;;;;;;;;0.69;58.27;98495.81;4497814;31;34327;-86
2022/12/14 09:55:51;;;;;;;;;;;;;;;0.84;58.34;98496.44;4497975;31;33938;-85
2022/12/14 09:58:25;;;;;;;;;;;;;;;1.12;57.77;98497.50;4497805;31;34915;-85
2022/12/14 10:00:58;;;;;;;;;;;;;;;1.44;56.47;98489.41;4497265;31;33053;-86
2022/12/14 10:03:44;;;;;;;;;;;;;;;1.43;56.99;98476.56;4497513;31;34382;-85
2022/12/14 10:06:21;;;;;;;;;;;;;;;0.89;57.97;98473.62;4499134;31;34412;-86
2022/12/14 10:08:58;;;;;;;;;;;;;;;1.42;56.56;98485.91;4498850;31;34910;-85
2022/12/14 10:11:28;;;;;;;;;;;;;;;1.16;57.15;98489.16;4497640;31;33463;-85
2022/12/14 10:14:05;;;;;;;;;;;;;;;1.80;56.02;98481.34;4497333;31;33722;-84
2022/12/14 10:16:51;;;;;;;;;;;;;;;0.63;58.06;98482.78;4497525;31;35324;-83
2022/12/14 10:19:19;;;;;;;;;;;;;;;1.39;57.09;98490.03;4498366;31;34289;-86
2022/12/14 10:21:47;;;;;;;;;;;;;;;1.14;57.36;98490.81;4498853;31;33118;-85
2022/12/14 10:24:16;;;;;;;;;;;;;;;0.85;57.55;98477.75;4497474;31;34838;-85
2022/12/14 10:26:45;;;;;;;;;;;;;;;0.90;58.01;98466.03;4497318;31;34446;-83
2022/12/14 10:29:14;;;;;;;;;;;;;;;0.46;59.09;98469.37;4497611;31;33949;-85
2022/12/14 10:31:50;;;;;;;;;;;;;;;0.28;59.17;98460.97;4497422;31;33456;-85
2022/12/14 10:34:19;;;;;;;;;;;;;;;0.36;59.43;98462.13;4498593;31;34346;-85
2022/12/14 10:36:53;;;;;;;;;;;;;;;0.10;60.20;98463.59;4497691;31;33677;-85
2022/12/14 10:39:36;;;;;;;;;;;;;;;1.14;57.58;98450.81;4498679;31;35059;-86
2022/12/14 10:42:09;;;;;;;;;;;;;;;1.41;56.46;98445.00;4497037;31;33500;-84
2022/12/14 10:44:46;;;;;;;;;;;;;;;1.11;58.20;98439.63;4496954;31;34974;-85
2022/12/14 10:47:25;;;;;;;;;;;;;;;1.23;57.20;98437.53;4496976;31;35131;-86
2022/12/14 10:49:55;;;;;;;;;;;;;;;1.52;56.75;98432.63;4496945;31;34909;-85
2022/12/14 10:52:22;;;;;;;;;;;;;;;1.13;57.28;98433.75;4497228;31;33406;-85
2022/12/14 10:54:51;;;;;;;;;;;;;;;1.54;56.67;98423.31;4498389;31;33925;-85
2022/12/14 10:57:19;;;;;;;;;;;;;;;0.88;57.55;98426.84;4496906;31;34388;-86
2022/12/14 10:59:46;;;;;;;;;;;;;;;1.47;55.87;98419.66;4497252;31;34288;-84
2022/12/14 11:02:35;;;;;;;;;;;;;;;1.77;55.26;98424.16;4498092;31;33363;-84
2022/12/14 11:05:11;;;;;;;;;;;;;;;2.21;53.98;98423.13;4497410;31;34646;-83
2022/12/14 11:07:38;;;;;;;;;;;;;;;2.30;53.89;98423.44;4496654;31;34693;-85
2022/12/14 11:10:22;;;;;;;;;;;;;;;1.80;55.25;98425.13;4498048;31;35187;-85
2022/12/14 11:13:07;;;;;;;;;;;;;;;2.02;54.49;98423.34;4500493;31;33988;-85
2022/12/14 11:15:36;;;;;;;;;;;;;;;2.33;53.61;98427.78;4500701;31;34279;-84
2022/12/14 11:18:05;;;;;;;;;;;;;;;1.72;55.37;98418.03;4499004;31;35389;-86
2022/12/14 11:20:33;;;;;;;;;;;;;;;1.98;54.25;98403.59;4500299;31;34663;-86
2022/12/14 11:23:07;;;;;;;;;;;;;;;2.39;53.27;98408.41;4498738;31;33209;-86
2022/12/14 11:25:41;;;;;;;;;;;;;;;1.65;54.82;98404.16;4500154;31;34158;-85
2022/12/14 11:28:16;;;;;;;;;;;;;;;1.82;54.58;98392.84;4499108;31;34086;-85
2022/12/14 11:30:55;;;;;;;;;;;;;;;1.65;54.74;98389.69;4498859;31;34217;-84
2022/12/14 11:33:30;;;;;;;;;;;;;;;1.99;54.53;98390.00;4500465;31;33972;-86
2022/12/14 11:35:57;;;;;;;;;;;;;;;1.61;55.38;98384.41;4498889;31;33759;-86
2022/12/14 11:38:25;;;;;;;;;;;;;;;1.95;54.87;98368.56;4498977;31;34051;-84
2022/12/14 11:40:52;;;;;;;;;;;;;;;1.97;54.22;98372.06;4499065;31;34183;-86
2022/12/14 11:43:33;;;;;;;;;;;;;;;2.01;53.94;98366.22;4500330;31;32975;-85
2022/12/14 11:46:00;;;;;;;;;;;;;;;1.81;54.49;98365.53;4498993;31;33761;-86
2022/12/14 11:48:28;;;;;;;;;;;;;;;1.80;54.27;98368.91;4499072;31;33799;-85
2022/12/14 11:51:13;;;;;;;;;;;;;;;1.77;54.66;98362.81;4486122;31;34207;-84
2022/12/14 11:53:41;;;;;;;;;;;;;;;2.07;53.71;98355.31;4495533;31;33282;-86
2022/12/14 11:56:12;;;;;;;;;;;;;;;2.38;52.47;98347.81;4499839;31;33770;-86
2022/12/14 11:58:45;;;;;;;;;;;;;;;1.83;54.62;98343.47;4485694;31;35166;-84
2022/12/14 12:01:13;;;;;;;;;;;;;;;1.55;54.50;98333.09;4485345;31;34218;-86
2022/12/14 12:03:41;;;;;;;;;;;;;;;1.46;54.91;98326.84;4499936;31;34301;-86
2022/12/14 12:06:10;;;;;;;;;;;;;;;1.70;54.33;98331.06;4485762;31;34914;-85
2022/12/14 12:08:38;;;;;;;;;;;;;;;1.87;54.46;98329.97;4485582;31;34846;-86
2022/12/14 12:11:18;;;;;;;;;;;;;;;2.36;53.00;98339.22;4472217;31;34966;-85
2022/12/14 12:13:47;;;;;;;;;;;;;;;2.17;53.32;98329.25;4499389;31;33573;-86
2022/12/14 12:16:15;;;;;;;;;;;;;;;2.21;53.12;98319.97;4485069;31;34056;-86
2022/12/14 12:19:02;;;;;;;;;;;;;;;1.87;53.43;98318.88;4472947;31;34760;-85
2022/12/14 12:21:41;;;;;;;;;;;;;;;1.57;54.98;98311.91;4499759;31;35131;-85
2022/12/14 12:24:21;;;;;;;;;;;;;;;2.21;53.66;98312.31;4485422;31;32984;-84
2022/12/14 12:26:49;;;;;;;;;;;;;;;1.83;54.23;98317.91;4493511;31;33626;-86
2022/12/14 12:29:19;;;;;;;;;;;;;;;2.21;53.91;98305.50;4499679;31;34033;-86
2022/12/14 12:31:53;;;;;;;;;;;;;;;2.39;52.65;98303.53;4499547;31;34863;-85
2022/12/14 12:34:22;;;;;;;;;;;;;;;2.31;52.64;98292.19;4500144;31;33663;-85
2022/12/14 12:36:49;;;;;;;;;;;;;;;2.60;52.14;98285.37;4492248;31;35006;-86
2022/12/14 12:39:36;;;;;;;;;;;;;;;2.27;53.10;98286.91;4499678;31;35109;-86
2022/12/14 12:42:15;;;;;;;;;;;;;;;2.68;52.42;98275.38;4485175;31;33266;-86
2022/12/14 12:44:46;;;;;;;;;;;;;;;2.34;53.00;98288.84;4499758;31;33067;-87
2022/12/14 12:47:17;;;;;;;;;;;;;;;2.22;53.07;98281.66;4499387;31;33611;-85
2022/12/14 12:50:15;;;;;;;;;;;;;;;2.71;51.78;98278.03;4500835;31;35339;-84
2022/12/14 12:53:02;;;;;;;;;;;;;;;3.34;50.33;98273.00;4515418;31;34270;-86
2022/12/14 12:55:34;;;;;;;;;;;;;;;2.79;51.63;98280.81;4514010;31;34203;-85
2022/12/14 12:58:01;;;;;;;;;;;;;;;2.54;52.26;98280.09;4513360;31;33864;-86
2022/12/14 13:00:29;;;;;;;;;;;;;;;2.56;52.23;98268.22;4514078;31;34078;-86
2022/12/14 13:02:58;;;;;;;;;;;;;;;2.55;52.17;98265.63;4514133;31;34375;-86
2022/12/14 13:05:26;;;;;;;;;;;;;;;2.22;53.33;98266.31;4515606;31;33124;-86
2022/12/14 13:08:25;;;;;;;;;;;;;;;2.92;52.08;98260.75;4514918;31;34299;-86
2022/12/14 13:10:53;;;;;;;;;;;;;;;2.57;53.12;98253.72;4514144;31;34757;-88
2022/12/14 13:13:50;;;;;;;;;;;;;;;2.51;53.19;98245.88;4514323;31;33234;-83
2022/12/14 13:16:22;;;;;;;;;;;;;;;2.98;51.97;98246.38;4513973;31;33447;-85
2022/12/14 13:18:57;;;;;;;;;;;;;;;2.67;52.40;98250.63;4513888;31;33386;-87
2022/12/14 13:21:48;;;;;;;;;;;;;;;2.10;53.35;98254.03;4514271;31;34244;-86
2022/12/14 13:24:18;;;;;;;;;;;;;;;2.11;53.73;98254.87;4515273;31;34216;-86
2022/12/14 13:26:58;;;;;;;;;;;;;;;2.41;53.12;98243.03;4515010;31;33380;-85